createdAt,value
2018-07-13T00:02:11.061Z,17.50
2018-07-13T00:04:44.354Z,17.60
2018-07-13T00:07:18.439Z,17.60
2018-07-13T00:09:53.203Z,17.60
2018-07-13T00:12:28.128Z,17.70
2018-07-13T00:15:08.959Z,17.70
2018-07-13T00:17:37.187Z,17.70
2018-07-13T00:20:05.570Z,17.80
2018-07-13T00:22:33.799Z,17.60
2018-07-13T00:25:02.117Z,17.70
2018-07-13T00:27:30.455Z,17.60
2018-07-13T00:29:58.663Z,17.60
2018-07-13T00:32:27.010Z,17.60
2018-07-13T00:34:55.236Z,17.60
2018-07-13T00:37:23.455Z,17.60
2018-07-13T00:39:51.716Z,17.60
2018-07-13T00:42:19.905Z,17.60
2018-07-13T00:44:48.309Z,17.60
2018-07-13T00:47:16.574Z,17.60
2018-07-13T00:49:44.932Z,17.60
2018-07-13T00:52:13.148Z,17.60
2018-07-13T00:54:41.501Z,17.60
2018-07-13T00:57:09.753Z,17.50
2018-07-13T00:59:37.969Z,17.60
2018-07-13T01:02:06.241Z,17.60
2018-07-13T01:04:34.451Z,17.60
2018-07-13T01:07:02.857Z,17.60
2018-07-13T01:09:33.919Z,17.60
2018-07-13T01:12:02.134Z,17.60
2018-07-13T01:14:30.370Z,17.60
2018-07-13T01:16:58.582Z,17.60
2018-07-13T01:19:26.808Z,17.60
2018-07-13T01:21:55.034Z,17.70
2018-07-13T01:24:23.349Z,17.60
2018-07-13T01:26:51.881Z,17.70
2018-07-13T01:29:20.130Z,17.60
2018-07-13T01:31:48.352Z,17.70
2018-07-13T01:36:44.545Z,17.70
2018-07-13T01:39:13.605Z,17.70
2018-07-13T01:41:41.867Z,17.70
2018-07-13T01:46:38.654Z,17.70
2018-07-13T01:49:07.214Z,17.70
2018-07-13T01:51:35.432Z,17.70
2018-07-13T01:54:03.712Z,17.70
2018-07-13T01:56:32.060Z,17.70
2018-07-13T01:59:00.301Z,17.70
2018-07-13T02:01:28.548Z,17.70
2018-07-13T02:03:56.776Z,17.60
2018-07-13T02:06:25.053Z,17.60
2018-07-13T02:08:53.519Z,17.60
2018-07-13T02:11:21.741Z,17.60
2018-07-13T02:13:50.710Z,17.70
2018-07-13T02:16:18.976Z,17.70
2018-07-13T02:18:47.213Z,17.70
2018-07-13T02:21:15.492Z,17.70
2018-07-13T02:23:43.752Z,17.60
2018-07-13T02:26:11.980Z,17.60
2018-07-13T02:28:40.206Z,17.60
2018-07-13T02:31:08.438Z,17.60
2018-07-13T02:33:36.668Z,17.60
2018-07-13T02:36:05.277Z,17.50
2018-07-13T02:38:33.493Z,17.50
2018-07-13T02:41:01.717Z,17.40
2018-07-13T02:45:57.939Z,17.50
2018-07-13T02:48:26.192Z,17.50
2018-07-13T02:50:54.436Z,17.50
2018-07-13T02:53:22.689Z,17.40
2018-07-13T02:55:50.923Z,17.40
2018-07-13T02:58:19.147Z,17.40
2018-07-13T03:00:47.420Z,17.30
2018-07-13T03:03:15.647Z,17.30
2018-07-13T03:05:43.869Z,17.30
2018-07-13T03:08:12.109Z,17.30
2018-07-13T03:10:40.316Z,17.30
2018-07-13T03:13:08.525Z,17.30
2018-07-13T03:15:36.729Z,17.40
2018-07-13T03:18:05.013Z,17.40
2018-07-13T03:20:33.248Z,17.30
2018-07-13T03:23:01.480Z,17.30
2018-07-13T03:25:29.708Z,17.30
2018-07-13T03:27:58.007Z,17.30
2018-07-13T03:30:26.227Z,17.20
2018-07-13T03:32:54.452Z,17.30
2018-07-13T03:35:22.703Z,17.30
2018-07-13T03:37:50.916Z,17.40
2018-07-13T03:40:19.157Z,17.40
2018-07-13T03:42:47.549Z,17.40
2018-07-13T03:45:15.783Z,17.40
2018-07-13T03:47:44.311Z,17.40
2018-07-13T03:50:12.565Z,17.40
2018-07-13T03:52:40.850Z,17.50
2018-07-13T03:55:09.092Z,17.50
2018-07-13T03:57:37.303Z,17.50
2018-07-13T04:00:05.540Z,17.40
2018-07-13T04:02:33.789Z,17.40
2018-07-13T04:07:30.216Z,17.50
2018-07-13T04:09:58.449Z,17.60
2018-07-13T04:12:26.724Z,17.60
2018-07-13T04:14:54.954Z,17.60
2018-07-13T04:17:23.168Z,17.70
2018-07-13T04:19:51.661Z,17.60
2018-07-13T04:22:19.944Z,17.70
2018-07-13T04:24:48.173Z,17.60
2018-07-13T04:27:16.439Z,17.70
2018-07-13T04:29:45.062Z,17.80
2018-07-13T04:32:13.379Z,17.80
2018-07-13T04:34:41.737Z,17.80
2018-07-13T04:37:09.972Z,17.80
2018-07-13T04:39:38.209Z,17.90
2018-07-13T04:42:06.573Z,17.90
2018-07-13T04:44:34.821Z,17.90
2018-07-13T04:47:03.092Z,17.90
2018-07-13T04:49:31.694Z,18.10
2018-07-13T04:51:59.927Z,18.10
2018-07-13T04:56:56.707Z,18.30
2018-07-13T04:59:25.258Z,18.30
2018-07-13T05:01:53.714Z,18.40
2018-07-13T05:04:21.961Z,18.50
2018-07-13T05:06:50.286Z,18.40
2018-07-13T05:09:18.519Z,18.50
2018-07-13T05:11:46.736Z,18.40
2018-07-13T05:14:14.993Z,18.60
2018-07-13T05:16:43.212Z,18.80
2018-07-13T05:19:11.468Z,19.00
2018-07-13T05:21:39.809Z,19.10
2018-07-13T05:24:08.069Z,19.30
2018-07-13T05:26:36.357Z,19.50
2018-07-13T05:29:04.606Z,19.90
2018-07-13T05:31:32.841Z,20.70
2018-07-13T05:34:01.078Z,21.30
2018-07-13T05:36:29.365Z,21.30
2018-07-13T05:38:58.807Z,21.00
2018-07-13T05:41:27.058Z,20.90
2018-07-13T05:43:55.652Z,20.80
2018-07-13T05:46:23.928Z,21.10
2018-07-13T05:48:52.222Z,21.40
2018-07-13T05:51:20.553Z,21.80
2018-07-13T05:53:48.877Z,22.60
2018-07-13T05:56:17.298Z,24.30
2018-07-13T05:58:45.656Z,24.10
2018-07-13T06:01:13.936Z,24.30
2018-07-13T06:03:42.238Z,24.50
2018-07-13T06:06:10.644Z,26.10
2018-07-13T06:11:07.394Z,28.10
2018-07-13T06:13:35.668Z,28.00
2018-07-13T06:16:03.900Z,27.70
2018-07-13T06:18:32.189Z,26.50
2018-07-13T06:21:00.462Z,26.70
2018-07-13T06:23:28.753Z,28.20
2018-07-13T06:25:56.998Z,29.10
2018-07-13T06:28:25.305Z,29.30
2018-07-13T06:30:53.993Z,28.30
2018-07-13T06:33:22.283Z,28.90
2018-07-13T06:35:50.551Z,30.30
2018-07-13T06:38:18.799Z,31.40
2018-07-13T06:40:47.792Z,31.30
2018-07-13T06:43:16.961Z,29.80
2018-07-13T06:45:45.211Z,28.50
2018-07-13T06:48:13.550Z,27.60
2018-07-13T06:50:41.821Z,27.60
2018-07-13T06:53:11.023Z,28.10
2018-07-13T06:55:39.275Z,29.80
2018-07-13T06:58:18.910Z,30.70
2018-07-13T07:00:59.157Z,30.90
2018-07-13T07:03:28.468Z,30.20
2018-07-13T07:05:59.414Z,30.50
2018-07-13T07:08:27.700Z,31.80
2018-07-13T07:10:56.302Z,32.50
2018-07-13T07:13:29.497Z,33.50
2018-07-13T07:15:58.270Z,34.00
2018-07-13T07:18:26.729Z,34.60
2018-07-13T07:20:55.911Z,34.80
2018-07-13T07:23:26.037Z,35.50
2018-07-13T07:25:56.888Z,36.10
2018-07-13T07:30:54.320Z,35.50
2018-07-13T07:33:22.729Z,33.50
2018-07-13T07:35:50.986Z,32.00
2018-07-13T07:40:47.886Z,30.50
2018-07-13T07:43:16.553Z,30.90
2018-07-13T07:45:45.043Z,30.30
2018-07-13T07:48:13.387Z,29.10
2018-07-13T07:50:42.018Z,28.10
2018-07-13T07:53:10.290Z,27.30
2018-07-13T07:55:38.723Z,26.50
2018-07-13T07:58:07.091Z,25.00
2018-07-13T08:00:35.394Z,24.50
2018-07-13T08:03:03.672Z,25.60
2018-07-13T08:05:31.926Z,26.60
2018-07-13T08:10:28.312Z,26.90
2018-07-13T08:12:56.562Z,26.90
2018-07-13T08:15:24.834Z,26.20
2018-07-13T08:17:53.077Z,26.40
2018-07-13T08:20:24.353Z,26.70
2018-07-13T08:22:55.267Z,27.80
2018-07-13T08:25:24.349Z,28.70
2018-07-13T08:27:53.505Z,29.00
2018-07-13T08:31:02.133Z,29.40
2018-07-13T08:33:30.366Z,29.50
2018-07-13T08:35:58.612Z,30.00
2018-07-13T08:38:26.911Z,29.90
2018-07-13T08:40:55.295Z,30.50
2018-07-13T08:43:26.228Z,31.00
2018-07-13T08:48:24.746Z,31.20
2018-07-13T08:50:57.366Z,31.00
2018-07-13T08:53:30.396Z,30.60
2018-07-13T08:56:01.729Z,30.40
2018-07-13T08:58:34.344Z,31.30
2018-07-13T09:01:02.626Z,31.10
2018-07-13T09:03:30.942Z,31.30
2018-07-13T09:05:59.190Z,30.70
2018-07-13T09:08:27.454Z,30.80
2018-07-13T09:10:55.742Z,30.70
2018-07-13T09:13:24.841Z,30.60
2018-07-13T09:15:53.523Z,29.90
2018-07-13T09:18:21.880Z,30.60
2018-07-13T09:20:50.156Z,30.30
2018-07-13T09:23:18.438Z,30.10
2018-07-13T09:25:46.722Z,29.70
2018-07-13T09:28:15.329Z,29.80
2018-07-13T09:30:43.637Z,29.80
2018-07-13T09:33:11.906Z,28.70
2018-07-13T09:35:41.409Z,28.10
2018-07-13T09:38:09.685Z,28.20
2018-07-13T09:40:37.945Z,28.10
2018-07-13T09:43:06.216Z,28.50
2018-07-13T09:45:34.514Z,28.50
2018-07-13T09:48:02.806Z,28.80
2018-07-13T09:50:31.045Z,28.70
2018-07-13T09:52:59.321Z,29.20
2018-07-13T09:55:27.639Z,28.90
2018-07-13T09:57:55.880Z,29.10
2018-07-13T10:00:28.524Z,28.60
2018-07-13T10:02:56.742Z,28.30
2018-07-13T10:05:25.031Z,28.30
2018-07-13T10:07:53.290Z,27.90
2018-07-13T10:10:21.527Z,27.30
2018-07-13T10:12:49.779Z,27.50
2018-07-13T10:15:18.017Z,27.70
2018-07-13T10:17:52.782Z,26.90
2018-07-13T10:20:21.065Z,27.30
2018-07-13T10:22:49.347Z,27.50
2018-07-13T10:25:17.623Z,27.30
2018-07-13T10:27:45.858Z,27.00
2018-07-13T10:30:14.466Z,26.80
2018-07-13T10:32:44.208Z,26.50
2018-07-13T10:35:12.817Z,26.40
2018-07-13T10:37:41.752Z,26.80
2018-07-13T10:40:10.155Z,27.30
2018-07-13T10:42:38.406Z,26.80
2018-07-13T10:45:06.947Z,26.50
2018-07-13T10:47:35.257Z,26.10
2018-07-13T10:50:03.499Z,26.00
2018-07-13T10:52:32.319Z,26.30
2018-07-13T10:55:00.554Z,26.20
2018-07-13T10:57:28.894Z,26.20
2018-07-13T10:59:57.163Z,26.10
2018-07-13T11:02:25.401Z,26.10
2018-07-13T11:04:53.772Z,25.80
2018-07-13T11:07:22.244Z,25.90
2018-07-13T11:09:50.480Z,25.90
2018-07-13T11:12:18.813Z,26.10
2018-07-13T11:14:47.245Z,26.10
2018-07-13T11:17:15.523Z,26.20
2018-07-13T11:19:43.752Z,26.30
2018-07-13T11:22:12.000Z,26.40
2018-07-13T11:24:40.337Z,26.40
2018-07-13T11:27:08.569Z,26.40
2018-07-13T11:29:39.180Z,26.40
2018-07-13T11:32:08.960Z,26.20
2018-07-13T11:34:40.010Z,26.10
2018-07-13T11:37:09.265Z,26.10
2018-07-13T11:39:37.476Z,26.10
2018-07-13T11:42:06.624Z,25.80
2018-07-13T11:44:34.921Z,25.80
2018-07-13T11:47:03.234Z,25.90
2018-07-13T11:49:33.233Z,26.10
2018-07-13T11:52:02.144Z,26.20
2018-07-13T11:54:30.659Z,26.30
2018-07-13T11:56:58.901Z,26.10
2018-07-13T11:59:27.156Z,26.10
2018-07-13T12:01:55.398Z,26.20
2018-07-13T12:06:51.728Z,26.40
2018-07-13T12:09:19.965Z,26.40
2018-07-13T12:11:48.222Z,26.50
2018-07-13T12:14:16.472Z,26.60
2018-07-13T12:16:44.812Z,26.50
2018-07-13T12:19:13.071Z,26.60
2018-07-13T12:21:41.372Z,26.70
2018-07-13T12:24:09.673Z,26.80
2018-07-13T12:26:37.930Z,26.70
2018-07-13T12:29:06.216Z,26.50
2018-07-13T12:31:34.511Z,26.60
2018-07-13T12:36:31.194Z,26.70
2018-07-13T12:38:59.454Z,26.60
2018-07-13T12:41:27.744Z,26.90
2018-07-13T12:43:55.981Z,26.80
2018-07-13T12:46:24.271Z,26.70
2018-07-13T12:48:52.572Z,26.70
2018-07-13T12:51:21.048Z,26.90
2018-07-13T12:53:49.308Z,26.80
2018-07-13T12:56:17.615Z,26.70
2018-07-13T12:58:45.855Z,26.40
2018-07-13T13:01:14.624Z,26.70
2018-07-13T13:03:42.957Z,26.90
2018-07-13T13:06:11.654Z,27.10
2018-07-13T13:08:39.904Z,27.20
2018-07-13T13:13:42.486Z,26.90
2018-07-13T13:16:10.772Z,26.80
2018-07-13T13:18:39.525Z,26.40
2018-07-13T13:23:36.045Z,25.80
2018-07-13T13:26:04.329Z,25.40
2018-07-13T13:28:32.780Z,25.30
2018-07-13T13:31:01.102Z,25.90
2018-07-13T13:33:29.378Z,26.40
2018-07-13T13:38:26.052Z,27.10
2018-07-13T13:40:54.393Z,26.90
2018-07-13T13:43:22.645Z,26.70
2018-07-13T13:45:50.896Z,26.40
2018-07-13T13:48:19.158Z,26.10
2018-07-13T13:50:47.382Z,26.10
2018-07-13T13:53:15.656Z,26.10
2018-07-13T13:55:43.963Z,26.30
2018-07-13T13:58:12.314Z,26.40
2018-07-13T14:00:40.593Z,26.60
2018-07-13T14:03:09.168Z,26.70
2018-07-13T14:05:37.457Z,27.10
2018-07-13T14:08:05.765Z,27.20
2018-07-13T14:10:34.045Z,27.20
2018-07-13T14:13:02.316Z,27.10
2018-07-13T14:15:30.581Z,27.00
2018-07-13T14:17:58.872Z,27.10
2018-07-13T14:20:27.135Z,26.90
2018-07-13T14:22:55.441Z,27.00
2018-07-13T14:25:24.013Z,27.00
2018-07-13T14:27:52.286Z,26.80
2018-07-13T14:30:20.531Z,26.60
2018-07-13T14:32:48.779Z,26.10
2018-07-13T14:35:17.267Z,26.00
2018-07-13T14:37:45.583Z,26.00
2018-07-13T14:40:13.908Z,26.30
2018-07-13T14:42:42.065Z,26.60
2018-07-13T14:45:10.441Z,26.70
2018-07-13T14:47:38.720Z,26.70
2018-07-13T14:50:07.242Z,27.10
2018-07-13T14:52:35.498Z,27.20
2018-07-13T14:55:03.824Z,27.30
2018-07-13T14:57:33.212Z,27.30
2018-07-13T15:02:29.549Z,27.30
2018-07-13T15:04:57.820Z,27.00
2018-07-13T15:07:26.161Z,26.90
2018-07-13T15:09:55.357Z,26.80
2018-07-13T15:12:24.278Z,27.10
2018-07-13T15:14:52.557Z,27.10
2018-07-13T15:17:21.100Z,27.00
2018-07-13T15:22:17.414Z,26.70
2018-07-13T15:24:45.692Z,26.70
2018-07-13T15:27:13.941Z,26.70
2018-07-13T15:29:42.236Z,26.60
2018-07-13T15:32:12.054Z,26.40
2018-07-13T15:34:40.264Z,26.50
2018-07-13T15:37:09.644Z,26.40
2018-07-13T15:39:38.602Z,26.20
2018-07-13T15:42:07.068Z,26.10
2018-07-13T15:44:36.598Z,26.00
2018-07-13T15:47:05.299Z,26.00
2018-07-13T15:49:33.541Z,26.20
2018-07-13T15:52:01.957Z,26.30
2018-07-13T15:54:30.192Z,26.20
2018-07-13T15:56:58.786Z,26.40
2018-07-13T15:59:27.049Z,26.20
2018-07-13T16:01:55.325Z,25.80
2018-07-13T16:04:23.561Z,25.80
2018-07-13T16:06:51.811Z,25.70
2018-07-13T16:09:20.100Z,25.90
2018-07-13T16:11:48.309Z,25.80
2018-07-13T16:14:16.553Z,25.90
2018-07-13T16:16:44.801Z,26.10
2018-07-13T16:19:13.080Z,26.30
2018-07-13T16:21:41.317Z,26.50
2018-07-13T16:24:09.598Z,26.50
2018-07-13T16:26:38.009Z,26.50
2018-07-13T16:29:06.255Z,26.50
2018-07-13T16:31:34.628Z,26.40
2018-07-13T16:34:02.896Z,26.20
2018-07-13T16:36:31.179Z,26.00
2018-07-13T16:38:59.409Z,25.80
2018-07-13T16:41:27.684Z,25.90
2018-07-13T16:43:55.947Z,26.00
2018-07-13T16:46:24.530Z,25.90
2018-07-13T16:48:52.999Z,25.90
2018-07-13T16:51:21.260Z,26.00
2018-07-13T16:53:49.555Z,25.80
2018-07-13T16:56:17.892Z,25.70
2018-07-13T16:58:46.128Z,25.90
2018-07-13T17:03:42.602Z,25.50
2018-07-13T17:06:10.840Z,25.30
2018-07-13T17:08:39.160Z,25.20
2018-07-13T17:11:07.807Z,25.10
2018-07-13T17:13:36.050Z,24.80
2018-07-13T17:16:04.312Z,24.60
2018-07-13T17:18:32.591Z,24.40
2018-07-13T17:21:00.825Z,24.10
2018-07-13T17:23:29.064Z,24.00
2018-07-13T17:25:57.333Z,24.10
2018-07-13T17:30:53.589Z,24.10
2018-07-13T17:33:21.809Z,24.00
2018-07-13T17:35:50.221Z,23.70
2018-07-13T17:38:18.484Z,23.60
2018-07-13T17:40:46.730Z,23.50
2018-07-13T17:43:15.044Z,23.40
2018-07-13T17:45:43.322Z,23.40
2018-07-13T17:48:11.588Z,23.30
2018-07-13T17:50:39.847Z,23.20
2018-07-13T17:53:08.125Z,23.20
2018-07-13T17:55:36.395Z,23.40
2018-07-13T17:58:04.688Z,23.40
2018-07-13T18:00:33.038Z,23.40
2018-07-13T18:03:01.254Z,23.50
2018-07-13T18:05:29.543Z,23.40
2018-07-13T18:07:57.841Z,23.40
2018-07-13T18:12:54.628Z,23.30
2018-07-13T18:15:22.705Z,23.30
2018-07-13T18:17:51.046Z,23.20
2018-07-13T18:20:19.864Z,23.20
2018-07-13T18:22:48.230Z,23.10
2018-07-13T18:25:16.472Z,23.10
2018-07-13T18:27:44.746Z,23.00
2018-07-13T18:30:12.974Z,22.80
2018-07-13T18:32:41.354Z,22.90
2018-07-13T18:35:09.610Z,22.80
2018-07-13T18:37:37.859Z,22.70
2018-07-13T18:40:06.153Z,22.70
2018-07-13T18:42:34.429Z,22.50
2018-07-13T18:45:02.713Z,22.40
2018-07-13T18:47:31.026Z,22.30
2018-07-13T18:49:59.725Z,22.20
2018-07-13T18:52:28.037Z,22.20
2018-07-13T18:54:56.294Z,22.00
2018-07-13T18:57:24.553Z,21.80
2018-07-13T19:02:20.831Z,21.80
2018-07-13T19:04:49.138Z,21.70
2018-07-13T19:07:17.506Z,21.60
2018-07-13T19:09:45.697Z,21.50
2018-07-13T19:12:13.949Z,21.50
2018-07-13T19:14:42.247Z,21.40
2018-07-13T19:17:10.560Z,21.30
2018-07-13T19:19:38.857Z,21.20
2018-07-13T19:22:07.329Z,21.10
2018-07-13T19:24:35.558Z,21.00
2018-07-13T19:27:03.852Z,21.10
2018-07-13T19:29:32.143Z,21.00
2018-07-13T19:32:00.413Z,21.00
2018-07-13T19:34:29.101Z,20.80
2018-07-13T19:36:57.393Z,20.90
2018-07-13T19:39:25.693Z,20.80
2018-07-13T19:41:53.977Z,20.70
2018-07-13T19:44:22.295Z,20.70
2018-07-13T19:46:50.534Z,20.50
2018-07-13T19:49:19.182Z,20.50
2018-07-13T19:51:47.542Z,20.50
2018-07-13T19:54:16.008Z,20.40
2018-07-13T19:56:44.297Z,20.40
2018-07-13T19:59:12.549Z,20.50
2018-07-13T20:01:40.811Z,20.50
2018-07-13T20:04:09.140Z,20.30
2018-07-13T20:06:37.379Z,20.20
2018-07-13T20:09:06.466Z,20.10
2018-07-13T20:11:34.738Z,20.00
2018-07-13T20:14:03.057Z,20.10
2018-07-13T20:16:31.323Z,20.00
2018-07-13T20:18:59.599Z,19.90
2018-07-13T20:21:28.030Z,20.00
2018-07-13T20:26:24.758Z,19.90
2018-07-13T20:28:52.993Z,19.80
2018-07-13T20:31:21.274Z,19.80
2018-07-13T20:33:49.750Z,19.70
2018-07-13T20:36:18.093Z,19.80
2018-07-13T20:41:14.654Z,19.80
2018-07-13T20:43:42.941Z,19.80
2018-07-13T20:46:11.410Z,19.70
2018-07-13T20:48:39.834Z,19.60
2018-07-13T20:51:08.248Z,19.50
2018-07-13T20:53:36.747Z,19.50
2018-07-13T20:56:05.058Z,19.50
2018-07-13T20:58:33.313Z,19.50
2018-07-13T21:01:01.566Z,19.40
2018-07-13T21:03:29.824Z,19.40
2018-07-13T21:05:58.083Z,19.40
2018-07-13T21:08:26.364Z,19.20
2018-07-13T21:10:54.754Z,19.20
2018-07-13T21:13:23.045Z,19.10
2018-07-13T21:18:19.499Z,19.00
2018-07-13T21:20:47.836Z,18.90
2018-07-13T21:23:16.136Z,19.00
2018-07-13T21:25:44.401Z,18.80
2018-07-13T21:28:12.657Z,18.80
2018-07-13T21:30:40.970Z,18.70
2018-07-13T21:35:37.222Z,18.50
2018-07-13T21:38:05.612Z,18.50
2018-07-13T21:40:34.321Z,18.50
2018-07-13T21:43:02.603Z,18.40
2018-07-13T21:45:30.844Z,18.40
2018-07-13T21:48:05.838Z,18.50
2018-07-13T21:50:34.145Z,18.40
2018-07-13T21:53:02.416Z,18.40
2018-07-13T21:57:58.879Z,18.30
2018-07-13T22:00:27.162Z,18.30
2018-07-13T22:02:55.429Z,18.30
2018-07-13T22:05:23.798Z,18.20
2018-07-13T22:10:20.097Z,18.10
2018-07-13T22:12:48.414Z,18.10
2018-07-13T22:17:44.716Z,18.10
2018-07-13T22:20:12.993Z,18.20
2018-07-13T22:22:41.279Z,18.20
2018-07-13T22:25:09.866Z,18.10
2018-07-13T22:27:38.126Z,18.10
2018-07-13T22:30:07.128Z,17.90
2018-07-13T22:32:35.412Z,17.90
2018-07-13T22:35:03.737Z,17.90
2018-07-13T22:37:33.034Z,17.90
2018-07-13T22:42:29.445Z,17.90
2018-07-13T22:44:57.717Z,17.70
2018-07-13T22:47:25.976Z,17.80
2018-07-13T22:49:54.288Z,17.70
2018-07-13T22:52:22.569Z,17.60
2018-07-13T22:54:50.932Z,17.60
2018-07-13T22:57:19.250Z,17.60
2018-07-13T22:59:47.602Z,17.60
2018-07-13T23:02:15.927Z,17.60
2018-07-13T23:04:44.406Z,17.60
2018-07-13T23:07:12.650Z,17.50
2018-07-13T23:09:40.871Z,17.60
2018-07-13T23:12:09.150Z,17.60
2018-07-13T23:14:37.506Z,17.60
2018-07-13T23:17:05.909Z,17.60
2018-07-13T23:19:35.187Z,17.70
2018-07-13T23:22:03.406Z,17.70
2018-07-13T23:24:31.855Z,17.60
2018-07-13T23:27:00.146Z,17.60
2018-07-13T23:29:28.402Z,17.50
2018-07-13T23:31:56.617Z,17.50
2018-07-13T23:34:24.993Z,17.60
2018-07-13T23:36:53.279Z,17.60
2018-07-13T23:39:21.587Z,17.70
2018-07-13T23:41:49.809Z,17.60
2018-07-13T23:44:18.030Z,17.60
2018-07-13T23:46:46.280Z,17.60
2018-07-13T23:49:14.515Z,17.60
2018-07-13T23:51:42.816Z,17.60
2018-07-13T23:54:11.113Z,17.60
2018-07-13T23:56:39.366Z,17.60
2018-07-13T23:59:07.638Z,17.60
